createdAt,value
2017-10-21T00:00:07.615Z,8.30
2017-10-21T00:02:35.104Z,8.30
2017-10-21T00:05:02.578Z,8.30
2017-10-21T00:07:30.072Z,8.30
2017-10-21T00:09:57.536Z,8.40
2017-10-21T00:12:25.011Z,8.40
2017-10-21T00:14:52.494Z,8.50
2017-10-21T00:17:19.961Z,8.70
2017-10-21T00:19:47.446Z,8.50
2017-10-21T00:22:14.920Z,8.50
2017-10-21T00:24:42.414Z,8.50
2017-10-21T00:27:10.688Z,8.70
2017-10-21T00:29:38.927Z,8.70
2017-10-21T00:32:06.405Z,8.70
2017-10-21T00:34:33.858Z,8.80
2017-10-21T00:37:01.336Z,8.70
2017-10-21T00:39:29.573Z,8.40
2017-10-21T00:41:57.357Z,8.40
2017-10-21T00:44:24.833Z,8.40
2017-10-21T00:46:52.312Z,8.30
2017-10-21T00:49:19.812Z,8.30
2017-10-21T00:51:48.069Z,8.20
2017-10-21T00:54:15.553Z,8.20
2017-10-21T00:56:43.012Z,8.20
2017-10-21T00:59:10.498Z,8.20
2017-10-21T01:01:38.741Z,8.30
2017-10-21T01:04:06.215Z,8.30
2017-10-21T01:06:33.987Z,8.30
2017-10-21T01:09:01.448Z,8.40
2017-10-21T01:11:29.707Z,8.50
2017-10-21T01:13:57.177Z,8.50
2017-10-21T01:16:24.627Z,8.50
2017-10-21T01:18:52.117Z,8.60
2017-10-21T01:21:19.562Z,8.50
2017-10-21T01:23:47.058Z,8.60
2017-10-21T01:26:14.542Z,8.70
2017-10-21T01:28:42.071Z,8.60
2017-10-21T01:31:09.549Z,8.60
2017-10-21T01:33:37.022Z,8.50
2017-10-21T01:36:04.493Z,8.50
2017-10-21T01:38:32.714Z,8.30
2017-10-21T01:41:00.194Z,8.30
2017-10-21T01:43:27.687Z,8.30
2017-10-21T01:45:55.964Z,8.10
2017-10-21T01:48:24.191Z,8.00
2017-10-21T01:50:51.665Z,8.10
2017-10-21T01:53:19.978Z,7.80
2017-10-21T01:55:48.217Z,7.80
2017-10-21T01:58:16.731Z,7.80
2017-10-21T02:00:44.947Z,7.70
2017-10-21T02:03:12.425Z,7.70
2017-10-21T02:05:39.896Z,7.70
2017-10-21T02:08:07.357Z,7.60
2017-10-21T02:10:34.838Z,7.50
2017-10-21T02:13:03.073Z,7.30
2017-10-21T02:15:30.582Z,7.40
2017-10-21T02:17:58.041Z,7.30
2017-10-21T02:20:25.909Z,7.30
2017-10-21T02:22:53.370Z,7.30
2017-10-21T02:25:20.842Z,7.20
2017-10-21T02:27:48.334Z,7.30
2017-10-21T02:30:15.806Z,7.30
2017-10-21T02:32:43.286Z,7.30
2017-10-21T02:35:10.739Z,7.30
2017-10-21T02:37:38.215Z,7.40
2017-10-21T02:40:05.665Z,7.50
2017-10-21T02:42:33.119Z,7.50
2017-10-21T02:45:00.616Z,7.60
2017-10-21T02:47:28.858Z,7.60
2017-10-21T02:49:56.345Z,7.60
2017-10-21T02:52:23.799Z,7.70
2017-10-21T02:54:51.293Z,7.80
2017-10-21T02:57:18.761Z,7.90
2017-10-21T02:59:46.219Z,7.90
2017-10-21T03:02:14.477Z,8.20
2017-10-21T03:04:41.926Z,8.20
2017-10-21T03:07:09.394Z,8.30
2017-10-21T03:09:36.832Z,8.40
2017-10-21T03:12:04.322Z,8.40
2017-10-21T03:14:32.558Z,8.50
2017-10-21T03:17:00.040Z,8.50
2017-10-21T03:19:27.506Z,8.50
2017-10-21T03:21:55.054Z,8.60
2017-10-21T03:24:22.532Z,8.70
2017-10-21T03:26:50.752Z,8.70
2017-10-21T03:29:18.233Z,8.70
2017-10-21T03:31:45.717Z,8.80
2017-10-21T03:34:13.962Z,8.80
2017-10-21T03:36:41.446Z,8.80
2017-10-21T03:39:09.700Z,8.90
2017-10-21T03:41:37.233Z,8.80
2017-10-21T03:44:04.687Z,8.80
2017-10-21T03:46:32.159Z,8.70
2017-10-21T03:48:59.658Z,8.70
2017-10-21T03:51:27.908Z,8.60
2017-10-21T03:53:55.365Z,8.60
2017-10-21T03:56:22.846Z,8.60
2017-10-21T03:58:51.116Z,8.60
2017-10-21T04:01:18.635Z,8.50
2017-10-21T04:03:46.135Z,8.70
2017-10-21T04:06:13.590Z,8.70
2017-10-21T04:08:41.058Z,8.70
2017-10-21T04:11:09.308Z,8.80
2017-10-21T04:13:36.784Z,8.70
2017-10-21T04:16:04.257Z,8.80
2017-10-21T04:18:31.714Z,8.80
2017-10-21T04:20:59.229Z,8.90
2017-10-21T04:23:26.720Z,9.00
2017-10-21T04:25:55.201Z,9.10
2017-10-21T04:28:23.431Z,9.20
2017-10-21T04:30:50.912Z,9.20
2017-10-21T04:33:18.395Z,9.30
2017-10-21T04:35:46.640Z,9.40
2017-10-21T04:38:14.169Z,9.40
2017-10-21T04:40:41.627Z,9.60
2017-10-21T04:43:09.130Z,9.50
2017-10-21T04:45:36.589Z,9.60
2017-10-21T04:48:04.060Z,9.60
2017-10-21T04:50:31.569Z,9.60
2017-10-21T04:52:59.024Z,9.60
2017-10-21T04:55:26.754Z,9.60
2017-10-21T04:57:54.202Z,9.60
2017-10-21T05:00:21.693Z,9.70
2017-10-21T05:02:49.192Z,9.80
2017-10-21T05:05:16.644Z,9.80
2017-10-21T05:07:44.121Z,9.90
2017-10-21T05:10:11.577Z,9.90
2017-10-21T05:12:39.841Z,10.00
2017-10-21T05:15:07.316Z,10.00
2017-10-21T05:17:34.774Z,10.00
2017-10-21T05:20:02.258Z,10.10
2017-10-21T05:22:29.754Z,10.10
2017-10-21T05:24:57.226Z,10.10
2017-10-21T05:27:24.730Z,10.00
2017-10-21T05:29:52.261Z,10.10
2017-10-21T05:32:19.735Z,10.00
2017-10-21T05:34:47.208Z,10.00
2017-10-21T05:37:14.685Z,9.90
2017-10-21T05:39:42.935Z,9.80
2017-10-21T05:42:10.449Z,9.90
2017-10-21T05:44:38.327Z,9.90
2017-10-21T05:47:06.593Z,10.10
2017-10-21T05:49:34.072Z,10.10
2017-10-21T05:52:01.535Z,10.20
2017-10-21T05:54:29.041Z,10.20
2017-10-21T05:56:56.508Z,10.30
2017-10-21T05:59:24.005Z,10.30
2017-10-21T06:01:51.476Z,10.40
2017-10-21T06:04:18.979Z,10.30
2017-10-21T06:06:46.453Z,10.30
2017-10-21T06:09:14.730Z,10.30
2017-10-21T06:11:42.209Z,10.30
2017-10-21T06:14:09.688Z,10.30
2017-10-21T06:16:37.176Z,10.30
2017-10-21T06:19:05.460Z,10.40
2017-10-21T06:21:32.937Z,10.30
2017-10-21T06:24:00.417Z,10.40
2017-10-21T06:26:27.901Z,10.50
2017-10-21T06:28:55.388Z,10.40
2017-10-21T06:31:22.887Z,10.60
2017-10-21T06:33:50.371Z,10.60
2017-10-21T06:36:17.862Z,10.60
2017-10-21T06:38:45.362Z,10.70
2017-10-21T06:41:12.907Z,10.80
2017-10-21T06:43:40.377Z,10.90
2017-10-21T06:46:07.857Z,11.00
2017-10-21T06:48:35.322Z,11.00
2017-10-21T06:51:02.810Z,11.10
2017-10-21T06:53:30.279Z,11.20
2017-10-21T06:55:57.844Z,11.30
2017-10-21T06:58:25.311Z,11.40
2017-10-21T07:00:52.802Z,11.40
2017-10-21T07:03:20.285Z,11.60
2017-10-21T07:05:47.783Z,11.70
2017-10-21T07:08:16.360Z,12.10
2017-10-21T07:10:43.818Z,11.90
2017-10-21T07:13:12.070Z,12.20
2017-10-21T07:15:39.548Z,12.30
2017-10-21T07:18:07.828Z,12.50
2017-10-21T07:20:35.475Z,12.40
2017-10-21T07:23:02.952Z,12.60
2017-10-21T07:25:30.698Z,12.60
2017-10-21T07:27:58.176Z,12.60
2017-10-21T07:30:25.658Z,12.60
2017-10-21T07:32:53.121Z,12.70
2017-10-21T07:35:20.669Z,12.70
2017-10-21T07:37:48.185Z,12.70
2017-10-21T07:40:15.720Z,12.60
2017-10-21T07:42:43.519Z,12.70
2017-10-21T07:45:11.017Z,12.80
2017-10-21T07:47:38.485Z,12.80
2017-10-21T07:50:05.994Z,12.80
2017-10-21T07:52:34.220Z,13.00
2017-10-21T07:55:01.813Z,12.90
2017-10-21T07:57:29.399Z,13.00
2017-10-21T07:59:56.883Z,13.20
2017-10-21T08:02:24.505Z,13.30
2017-10-21T08:04:51.985Z,13.50
2017-10-21T08:07:19.485Z,13.60
2017-10-21T08:09:46.972Z,13.80
2017-10-21T08:12:14.485Z,13.80
2017-10-21T08:14:42.051Z,13.80
2017-10-21T08:17:09.869Z,13.90
2017-10-21T08:19:37.934Z,13.80
2017-10-21T08:22:06.196Z,14.00
2017-10-21T08:24:33.831Z,14.00
2017-10-21T08:27:01.318Z,14.10
2017-10-21T08:29:28.842Z,14.00
2017-10-21T08:31:57.107Z,14.00
2017-10-21T08:34:24.991Z,14.00
2017-10-21T08:36:53.594Z,14.20
2017-10-21T08:39:21.872Z,14.30
2017-10-21T08:41:49.346Z,14.10
2017-10-21T08:44:16.817Z,14.20
2017-10-21T08:46:44.464Z,14.30
2017-10-21T08:49:12.729Z,14.50
2017-10-21T08:51:41.329Z,14.60
2017-10-21T08:54:09.568Z,14.80
2017-10-21T08:56:37.049Z,14.80
2017-10-21T08:59:04.533Z,14.90
2017-10-21T09:01:32.032Z,15.00
2017-10-21T09:03:59.522Z,14.90
2017-10-21T09:06:26.993Z,14.90
2017-10-21T09:08:55.261Z,14.60
2017-10-21T09:11:22.748Z,14.60
2017-10-21T09:13:50.407Z,14.50
2017-10-21T09:16:17.978Z,14.40
2017-10-21T09:18:45.449Z,14.40
2017-10-21T09:21:12.955Z,14.30
2017-10-21T09:23:40.464Z,14.20
2017-10-21T09:26:07.985Z,14.20
2017-10-21T09:28:36.236Z,13.90
2017-10-21T09:31:03.719Z,13.80
2017-10-21T09:33:31.226Z,13.80
2017-10-21T09:35:58.690Z,13.60
2017-10-21T09:38:26.980Z,13.50
2017-10-21T09:40:54.477Z,13.40
2017-10-21T09:43:22.725Z,13.50
2017-10-21T09:45:50.244Z,13.50
2017-10-21T09:48:17.713Z,13.50
2017-10-21T09:50:45.452Z,13.60
2017-10-21T09:53:12.936Z,13.60
2017-10-21T09:55:40.420Z,13.70
2017-10-21T09:58:08.051Z,13.80
2017-10-21T10:00:35.553Z,13.80
2017-10-21T10:03:03.824Z,13.80
2017-10-21T10:05:32.121Z,13.90
2017-10-21T10:08:00.715Z,13.90
2017-10-21T10:10:28.193Z,13.90
2017-10-21T10:12:55.705Z,13.90
2017-10-21T10:15:23.970Z,14.00
2017-10-21T10:17:51.438Z,14.00
2017-10-21T10:20:19.692Z,14.00
2017-10-21T10:22:47.170Z,14.00
2017-10-21T10:25:15.701Z,14.10
2017-10-21T10:27:43.172Z,14.10
2017-10-21T10:30:10.689Z,14.20
2017-10-21T10:32:38.180Z,14.20
2017-10-21T10:35:06.448Z,14.30
2017-10-21T10:37:33.959Z,14.20
2017-10-21T10:40:01.419Z,14.20
2017-10-21T10:42:29.949Z,14.00
2017-10-21T10:44:57.408Z,14.00
2017-10-21T10:47:24.866Z,13.80
2017-10-21T10:49:52.410Z,13.80
2017-10-21T10:52:19.891Z,13.80
2017-10-21T10:54:47.399Z,13.80
2017-10-21T10:57:14.918Z,13.80
2017-10-21T10:59:42.669Z,13.80
2017-10-21T11:02:10.200Z,13.70
2017-10-21T11:04:37.687Z,13.70
2017-10-21T11:07:05.209Z,13.70
2017-10-21T11:09:32.817Z,13.70
2017-10-21T11:12:01.495Z,13.70
2017-10-21T11:14:28.965Z,13.70
2017-10-21T11:16:56.450Z,13.70
2017-10-21T11:19:24.709Z,13.70
2017-10-21T11:21:52.196Z,13.70
2017-10-21T11:24:19.727Z,13.70
2017-10-21T11:26:47.992Z,13.70
2017-10-21T11:29:15.523Z,13.80
2017-10-21T11:31:43.023Z,13.80
2017-10-21T11:34:11.720Z,13.90
2017-10-21T11:36:39.978Z,13.90
2017-10-21T11:39:08.265Z,14.00
2017-10-21T11:41:36.524Z,14.00
2017-10-21T11:44:04.897Z,14.00
2017-10-21T11:46:32.618Z,14.00
2017-10-21T11:49:00.138Z,14.10
2017-10-21T11:51:27.623Z,14.10
2017-10-21T11:53:55.127Z,14.10
2017-10-21T11:56:22.601Z,14.10
2017-10-21T11:58:50.112Z,14.20
2017-10-21T12:01:17.590Z,14.20
2017-10-21T12:03:45.075Z,14.20
2017-10-21T12:06:12.545Z,14.10
2017-10-21T12:08:40.820Z,14.00
2017-10-21T12:11:09.069Z,14.00
2017-10-21T12:13:36.552Z,14.00
2017-10-21T12:16:05.056Z,13.90
2017-10-21T12:18:32.537Z,13.90
2017-10-21T12:21:00.025Z,13.90
2017-10-21T12:23:27.506Z,13.90
2017-10-21T12:25:55.741Z,14.00
2017-10-21T12:28:23.266Z,14.00
2017-10-21T12:30:50.737Z,14.10
2017-10-21T12:33:18.553Z,14.20
2017-10-21T12:35:46.021Z,14.20
2017-10-21T12:38:13.499Z,14.30
2017-10-21T12:40:40.979Z,14.20
2017-10-21T12:43:08.481Z,14.30
2017-10-21T12:45:35.953Z,14.30
2017-10-21T12:48:04.201Z,14.50
2017-10-21T12:50:31.679Z,14.50
2017-10-21T12:52:59.934Z,14.50
2017-10-21T12:55:27.408Z,14.60
2017-10-21T12:57:54.893Z,14.70
2017-10-21T13:00:22.382Z,14.60
2017-10-21T13:02:49.866Z,14.70
2017-10-21T13:05:17.389Z,14.60
2017-10-21T13:07:44.872Z,14.60
2017-10-21T13:10:12.377Z,14.60
2017-10-21T13:12:40.601Z,14.60
2017-10-21T13:15:08.092Z,14.60
2017-10-21T13:17:35.556Z,14.70
2017-10-21T13:20:03.892Z,14.70
2017-10-21T13:22:31.387Z,14.70
2017-10-21T13:24:59.637Z,14.90
2017-10-21T13:27:27.987Z,14.80
2017-10-21T13:29:55.468Z,14.80
2017-10-21T13:32:22.949Z,14.80
2017-10-21T13:34:50.448Z,14.80
2017-10-21T13:37:17.948Z,14.80
2017-10-21T13:39:45.444Z,14.90
2017-10-21T13:42:12.931Z,14.80
2017-10-21T13:44:40.444Z,14.90
2017-10-21T13:47:08.715Z,14.90
2017-10-21T13:49:36.475Z,14.90
2017-10-21T13:52:03.993Z,14.90
2017-10-21T13:54:31.478Z,14.90
2017-10-21T13:56:58.957Z,14.80
2017-10-21T13:59:27.183Z,14.80
2017-10-21T14:01:54.674Z,14.80
2017-10-21T14:04:22.176Z,14.80
2017-10-21T14:06:49.693Z,15.00
2017-10-21T14:09:17.179Z,15.10
2017-10-21T14:11:44.708Z,15.10
2017-10-21T14:14:12.186Z,15.10
2017-10-21T14:16:40.421Z,15.10
2017-10-21T14:19:07.954Z,15.20
2017-10-21T14:21:35.443Z,15.20
2017-10-21T14:24:02.923Z,15.20
2017-10-21T14:26:30.439Z,15.40
2017-10-21T14:28:57.981Z,15.40
2017-10-21T14:31:25.458Z,15.50
2017-10-21T14:33:53.103Z,15.40
2017-10-21T14:36:21.315Z,15.30
2017-10-21T14:38:49.436Z,15.20
2017-10-21T14:41:17.424Z,15.20
2017-10-21T14:43:45.382Z,15.10
2017-10-21T14:46:13.059Z,15.10
2017-10-21T14:48:42.518Z,15.00
2017-10-21T14:51:10.734Z,14.90
2017-10-21T14:53:38.473Z,14.90
2017-10-21T14:56:06.760Z,15.00
2017-10-21T14:58:34.886Z,14.80
2017-10-21T15:01:02.751Z,14.80
2017-10-21T15:03:30.576Z,14.70
2017-10-21T15:05:58.764Z,14.70
2017-10-21T15:08:27.618Z,14.70
2017-10-21T15:10:55.751Z,14.70
2017-10-21T15:13:23.848Z,14.70
2017-10-21T15:15:52.119Z,14.60
2017-10-21T15:18:20.030Z,14.60
2017-10-21T15:20:48.344Z,14.50
2017-10-21T15:23:16.942Z,14.50
2017-10-21T15:25:45.846Z,14.50
2017-10-21T15:28:14.291Z,13.10
2017-10-21T15:30:42.383Z,14.40
2017-10-21T15:33:10.342Z,14.40
2017-10-21T15:35:38.787Z,14.40
2017-10-21T15:38:06.748Z,14.20
2017-10-21T15:40:34.511Z,14.20
2017-10-21T15:43:02.934Z,14.20
2017-10-21T15:45:31.142Z,14.10
2017-10-21T15:48:00.468Z,14.00
2017-10-21T15:50:28.660Z,14.00
2017-10-21T15:52:57.164Z,14.00
2017-10-21T15:55:25.247Z,14.00
2017-10-21T15:57:53.534Z,13.90
2017-10-21T16:00:22.615Z,13.80
2017-10-21T16:02:50.835Z,13.80
2017-10-21T16:05:19.487Z,13.80
2017-10-21T16:07:47.965Z,13.80
2017-10-21T16:10:15.605Z,13.70
2017-10-21T16:12:43.602Z,13.60
2017-10-21T16:15:11.557Z,13.50
2017-10-21T16:17:40.336Z,13.10
2017-10-21T16:20:08.233Z,13.10
2017-10-21T16:22:36.855Z,12.70
2017-10-21T16:25:04.330Z,12.70
2017-10-21T16:27:31.797Z,12.60
2017-10-21T16:29:59.294Z,12.50
2017-10-21T16:32:27.545Z,12.30
2017-10-21T16:34:55.167Z,12.30
2017-10-21T16:37:22.669Z,12.20
2017-10-21T16:39:50.393Z,12.20
2017-10-21T16:42:17.877Z,12.20
2017-10-21T16:44:45.364Z,12.10
2017-10-21T16:47:12.877Z,12.20
2017-10-21T16:49:40.387Z,12.10
2017-10-21T16:52:08.612Z,12.20
2017-10-21T16:54:36.125Z,12.10
2017-10-21T16:57:04.422Z,12.20
2017-10-21T16:59:31.925Z,12.10
2017-10-21T17:01:59.412Z,12.10
2017-10-21T17:04:26.937Z,12.10
2017-10-21T17:06:54.411Z,11.90
2017-10-21T17:09:21.921Z,11.80
2017-10-21T17:11:49.391Z,11.70
2017-10-21T17:14:17.266Z,11.70
2017-10-21T17:16:44.763Z,11.50
2017-10-21T17:19:12.268Z,11.40
2017-10-21T17:21:39.758Z,11.30
2017-10-21T17:24:08.021Z,11.20
2017-10-21T17:26:35.545Z,11.20
2017-10-21T17:29:03.038Z,11.00
2017-10-21T17:31:30.968Z,11.10
2017-10-21T17:33:58.638Z,11.10
2017-10-21T17:36:26.815Z,11.10
2017-10-21T17:38:54.412Z,11.00
2017-10-21T17:41:21.956Z,11.00
2017-10-21T17:43:49.721Z,11.00
2017-10-21T17:46:17.564Z,11.00
2017-10-21T17:48:48.167Z,11.00
2017-10-21T17:51:15.705Z,11.00
2017-10-21T17:53:43.214Z,11.00
2017-10-21T17:56:10.765Z,11.00
2017-10-21T17:58:38.311Z,11.00
2017-10-21T18:01:06.032Z,11.00
2017-10-21T18:03:33.504Z,11.00
2017-10-21T18:06:01.789Z,10.90
2017-10-21T18:08:30.335Z,10.90
2017-10-21T18:10:57.825Z,10.90
2017-10-21T18:13:25.402Z,10.90
2017-10-21T18:15:52.911Z,10.90
2017-10-21T18:18:20.391Z,10.90
2017-10-21T18:20:47.888Z,10.90
2017-10-21T18:23:15.390Z,10.90
2017-10-21T18:25:42.926Z,10.90
2017-10-21T18:28:10.432Z,10.90
2017-10-21T18:30:37.983Z,10.90
2017-10-21T18:33:06.324Z,11.60
2017-10-21T18:35:33.897Z,10.90
2017-10-21T18:38:02.262Z,10.90
2017-10-21T18:40:29.912Z,10.80
2017-10-21T18:42:57.549Z,10.90
2017-10-21T18:45:25.920Z,10.80
2017-10-21T18:47:53.502Z,10.70
2017-10-21T18:50:21.795Z,10.70
2017-10-21T18:52:49.382Z,10.70
2017-10-21T18:55:17.797Z,10.60
2017-10-21T18:57:48.421Z,10.70
2017-10-21T19:00:17.133Z,10.70
2017-10-21T19:02:44.649Z,10.60
2017-10-21T19:05:12.379Z,10.60
2017-10-21T19:07:40.361Z,10.60
2017-10-21T19:10:08.255Z,10.50
2017-10-21T19:12:35.864Z,10.50
2017-10-21T19:15:03.520Z,10.60
2017-10-21T19:17:31.337Z,10.60
2017-10-21T19:19:58.958Z,10.50
2017-10-21T19:22:26.669Z,10.50
2017-10-21T19:24:54.967Z,10.50
2017-10-21T19:27:23.397Z,10.50
2017-10-21T19:29:50.946Z,10.50
2017-10-21T19:32:18.478Z,10.60
2017-10-21T19:34:46.107Z,10.50
2017-10-21T19:37:14.353Z,10.50
2017-10-21T19:39:42.647Z,10.50
2017-10-21T19:42:10.324Z,10.50
2017-10-21T19:44:37.994Z,10.50
2017-10-21T19:47:06.666Z,10.50
2017-10-21T19:49:34.962Z,10.50
2017-10-21T19:52:02.849Z,10.50
2017-10-21T19:54:30.342Z,10.50
2017-10-21T19:56:57.868Z,10.40
2017-10-21T19:59:25.358Z,10.40
2017-10-21T20:01:52.878Z,10.40
2017-10-21T20:04:20.386Z,10.30
2017-10-21T20:06:47.848Z,10.30
2017-10-21T20:09:15.591Z,10.20
2017-10-21T20:11:43.208Z,10.20
2017-10-21T20:14:10.779Z,10.30
2017-10-21T20:16:38.279Z,10.20
2017-10-21T20:19:07.139Z,10.10
2017-10-21T20:21:34.644Z,10.10
2017-10-21T20:24:02.148Z,10.10
2017-10-21T20:26:29.746Z,10.10
2017-10-21T20:28:57.263Z,10.00
2017-10-21T20:31:24.779Z,10.10
2017-10-21T20:33:53.081Z,10.10
2017-10-21T20:36:20.556Z,10.10
2017-10-21T20:38:48.299Z,10.20
2017-10-21T20:41:15.862Z,10.10
2017-10-21T20:43:43.381Z,10.00
2017-10-21T20:46:10.917Z,10.00
2017-10-21T20:48:38.580Z,10.10
2017-10-21T20:51:06.107Z,10.00
2017-10-21T20:53:33.617Z,10.10
2017-10-21T20:56:01.553Z,10.10
2017-10-21T20:58:29.077Z,10.20
2017-10-21T21:00:56.569Z,10.30
2017-10-21T21:03:24.334Z,10.20
2017-10-21T21:05:51.798Z,10.20
2017-10-21T21:08:19.288Z,10.20
2017-10-21T21:10:47.802Z,10.40
2017-10-21T21:13:18.946Z,10.30
2017-10-21T21:15:49.879Z,10.20
2017-10-21T21:18:17.534Z,10.30
2017-10-21T21:20:45.020Z,10.30
2017-10-21T21:23:13.832Z,10.30
2017-10-21T21:25:41.632Z,10.30
2017-10-21T21:28:09.132Z,13.90
2017-10-21T21:30:36.609Z,10.30
2017-10-21T21:33:04.106Z,10.40
2017-10-21T21:35:32.419Z,10.40
2017-10-21T21:37:59.948Z,10.30
2017-10-21T21:40:27.556Z,10.40
2017-10-21T21:42:56.046Z,10.40
2017-10-21T21:45:24.169Z,10.40
2017-10-21T21:47:52.149Z,10.50
2017-10-21T21:50:20.269Z,10.40
2017-10-21T21:52:48.764Z,10.40
2017-10-21T21:55:16.731Z,10.40
2017-10-21T21:57:44.311Z,10.40
2017-10-21T22:00:12.911Z,10.30
2017-10-21T22:02:41.013Z,10.30
2017-10-21T22:05:08.995Z,10.20
2017-10-21T22:07:37.955Z,10.10
2017-10-21T22:10:05.736Z,10.10
2017-10-21T22:12:34.805Z,10.00
2017-10-21T22:15:02.551Z,10.00
2017-10-21T22:17:31.172Z,9.90
2017-10-21T22:19:58.760Z,9.90
2017-10-21T22:22:30.081Z,9.90
2017-10-21T22:24:58.984Z,9.80
2017-10-21T22:27:26.587Z,9.80
2017-10-21T22:29:54.781Z,9.80
2017-10-21T22:32:23.375Z,9.80
2017-10-21T22:34:51.381Z,9.70
2017-10-21T22:37:19.217Z,9.70
2017-10-21T22:39:46.681Z,9.70
2017-10-21T22:42:14.613Z,9.70
2017-10-21T22:44:42.844Z,9.70
2017-10-21T22:47:10.313Z,9.60
2017-10-21T22:49:37.797Z,9.70
2017-10-21T22:52:05.275Z,9.80
2017-10-21T22:54:32.774Z,9.80
2017-10-21T22:57:00.256Z,9.90
2017-10-21T22:59:28.030Z,9.90
2017-10-21T23:01:55.481Z,9.90
2017-10-21T23:04:22.934Z,9.90
2017-10-21T23:06:50.426Z,10.00
2017-10-21T23:09:17.907Z,10.00
2017-10-21T23:11:45.403Z,10.00
2017-10-21T23:14:12.858Z,10.00
2017-10-21T23:16:40.637Z,10.10
2017-10-21T23:19:08.898Z,10.20
2017-10-21T23:21:36.414Z,10.10
2017-10-21T23:24:03.891Z,10.20
2017-10-21T23:26:31.410Z,10.20
2017-10-21T23:28:59.061Z,10.20
2017-10-21T23:31:26.535Z,10.20
2017-10-21T23:33:54.045Z,10.20
2017-10-21T23:36:21.515Z,10.20
2017-10-21T23:38:48.964Z,10.10
2017-10-21T23:41:16.483Z,10.20
2017-10-21T23:43:43.957Z,10.20
2017-10-21T23:46:11.434Z,10.20
2017-10-21T23:48:38.931Z,10.10
2017-10-21T23:51:07.182Z,10.20
2017-10-21T23:53:34.653Z,10.10
2017-10-21T23:56:03.104Z,10.20
2017-10-21T23:58:30.604Z,10.10
